sensor_id;sensor_type;location;lat;lon;timestamp;temperature;humidity
64209;DHT22;50527;52.414;13.226;2024-02-26T00:00:28;2.90;96.10
64209;DHT22;50527;52.414;13.226;2024-02-26T00:02:54;2.90;96.70
64209;DHT22;50527;52.414;13.226;2024-02-26T00:05:20;2.80;96.60
64209;DHT22;50527;52.414;13.226;2024-02-26T00:07:45;2.90;97.20
64209;DHT22;50527;52.414;13.226;2024-02-26T00:10:13;2.90;97.60
64209;DHT22;50527;52.414;13.226;2024-02-26T00:12:39;2.90;97.60
64209;DHT22;50527;52.414;13.226;2024-02-26T00:15:06;2.80;96.70
64209;DHT22;50527;52.414;13.226;2024-02-26T00:17:31;2.70;96.50
64209;DHT22;50527;52.414;13.226;2024-02-26T00:19:57;2.50;97.90
64209;DHT22;50527;52.414;13.226;2024-02-26T00:22:22;2.50;98.80
64209;DHT22;50527;52.414;13.226;2024-02-26T00:24:48;2.40;99.10
64209;DHT22;50527;52.414;13.226;2024-02-26T00:27:13;2.20;99.80
64209;DHT22;50527;52.414;13.226;2024-02-26T00:29:39;2.20;99.90
64209;DHT22;50527;52.414;13.226;2024-02-26T00:32:05;2.20;99.90
64209;DHT22;50527;52.414;13.226;2024-02-26T00:34:30;2.30;99.90
64209;DHT22;50527;52.414;13.226;2024-02-26T00:36:56;2.30;99.90
64209;DHT22;50527;52.414;13.226;2024-02-26T00:39:21;2.30;99.70
64209;DHT22;50527;52.414;13.226;2024-02-26T00:41:47;2.30;99.10
64209;DHT22;50527;52.414;13.226;2024-02-26T00:44:12;2.30;99.10
64209;DHT22;50527;52.414;13.226;2024-02-26T00:46:38;2.30;98.80
64209;DHT22;50527;52.414;13.226;2024-02-26T00:49:03;2.30;98.70
64209;DHT22;50527;52.414;13.226;2024-02-26T00:51:30;2.40;98.90
64209;DHT22;50527;52.414;13.226;2024-02-26T00:53:55;2.30;98.00
64209;DHT22;50527;52.414;13.226;2024-02-26T00:56:21;2.30;97.90
64209;DHT22;50527;52.414;13.226;2024-02-26T00:58:47;2.30;98.50
64209;DHT22;50527;52.414;13.226;2024-02-26T01:01:12;2.30;98.80
64209;DHT22;50527;52.414;13.226;2024-02-26T01:03:38;2.40;98.80
64209;DHT22;50527;52.414;13.226;2024-02-26T01:06:04;2.30;98.80
64209;DHT22;50527;52.414;13.226;2024-02-26T01:08:29;2.20;97.60
64209;DHT22;50527;52.414;13.226;2024-02-26T01:10:55;2.00;98.40
64209;DHT22;50527;52.414;13.226;2024-02-26T01:13:20;1.90;99.40
64209;DHT22;50527;52.414;13.226;2024-02-26T01:15:46;1.90;99.80
64209;DHT22;50527;52.414;13.226;2024-02-26T01:18:12;2.00;99.90
64209;DHT22;50527;52.414;13.226;2024-02-26T01:20:37;2.00;99.90
64209;DHT22;50527;52.414;13.226;2024-02-26T01:23:03;1.90;99.90
64209;DHT22;50527;52.414;13.226;2024-02-26T01:25:28;2.00;99.90
64209;DHT22;50527;52.414;13.226;2024-02-26T01:27:54;1.90;99.90
64209;DHT22;50527;52.414;13.226;2024-02-26T01:30:19;2.00;99.60
64209;DHT22;50527;52.414;13.226;2024-02-26T01:32:45;1.90;98.70
64209;DHT22;50527;52.414;13.226;2024-02-26T01:35:11;2.00;99.50
64209;DHT22;50527;52.414;13.226;2024-02-26T01:37:37;2.00;99.80
64209;DHT22;50527;52.414;13.226;2024-02-26T01:40:03;1.90;99.30
64209;DHT22;50527;52.414;13.226;2024-02-26T01:42:30;1.90;99.50
64209;DHT22;50527;52.414;13.226;2024-02-26T01:44:57;1.90;99.60
64209;DHT22;50527;52.414;13.226;2024-02-26T01:47:23;1.90;99.80
64209;DHT22;50527;52.414;13.226;2024-02-26T01:49:49;1.90;99.40
64209;DHT22;50527;52.414;13.226;2024-02-26T01:52:15;1.90;98.80
64209;DHT22;50527;52.414;13.226;2024-02-26T01:54:42;1.90;99.00
64209;DHT22;50527;52.414;13.226;2024-02-26T01:57:10;1.90;98.70
64209;DHT22;50527;52.414;13.226;2024-02-26T01:59:36;1.80;98.80
64209;DHT22;50527;52.414;13.226;2024-02-26T02:02:04;1.80;99.10
64209;DHT22;50527;52.414;13.226;2024-02-26T02:04:30;1.70;99.10
64209;DHT22;50527;52.414;13.226;2024-02-26T02:06:57;1.80;99.70
64209;DHT22;50527;52.414;13.226;2024-02-26T02:09:23;1.80;99.90
64209;DHT22;50527;52.414;13.226;2024-02-26T02:11:49;1.70;99.90
64209;DHT22;50527;52.414;13.226;2024-02-26T02:14:15;1.80;99.90
64209;DHT22;50527;52.414;13.226;2024-02-26T02:16:40;1.70;99.90
64209;DHT22;50527;52.414;13.226;2024-02-26T02:19:06;1.60;99.90
64209;DHT22;50527;52.414;13.226;2024-02-26T02:21:31;1.60;99.80
64209;DHT22;50527;52.414;13.226;2024-02-26T02:23:57;1.60;99.90
64209;DHT22;50527;52.414;13.226;2024-02-26T02:26:22;1.60;99.80
64209;DHT22;50527;52.414;13.226;2024-02-26T02:28:48;1.60;99.70
64209;DHT22;50527;52.414;13.226;2024-02-26T02:31:15;1.70;99.90
64209;DHT22;50527;52.414;13.226;2024-02-26T02:33:40;1.70;99.90
64209;DHT22;50527;52.414;13.226;2024-02-26T02:36:06;1.70;99.90
64209;DHT22;50527;52.414;13.226;2024-02-26T02:38:38;1.60;99.20
64209;DHT22;50527;52.414;13.226;2024-02-26T02:41:04;1.50;99.50
64209;DHT22;50527;52.414;13.226;2024-02-26T02:43:30;1.50;99.90
64209;DHT22;50527;52.414;13.226;2024-02-26T02:45:55;1.50;99.90
64209;DHT22;50527;52.414;13.226;2024-02-26T02:48:21;1.50;99.90
64209;DHT22;50527;52.414;13.226;2024-02-26T02:50:46;1.50;99.90
64209;DHT22;50527;52.414;13.226;2024-02-26T02:53:11;1.50;99.90
64209;DHT22;50527;52.414;13.226;2024-02-26T02:55:37;1.50;99.90
64209;DHT22;50527;52.414;13.226;2024-02-26T02:58:03;1.40;99.90
64209;DHT22;50527;52.414;13.226;2024-02-26T03:00:28;1.40;99.90
64209;DHT22;50527;52.414;13.226;2024-02-26T03:02:54;1.50;99.90
64209;DHT22;50527;52.414;13.226;2024-02-26T03:05:19;1.50;99.90
64209;DHT22;50527;52.414;13.226;2024-02-26T03:07:45;1.50;99.90
64209;DHT22;50527;52.414;13.226;2024-02-26T03:10:10;1.60;99.90
64209;DHT22;50527;52.414;13.226;2024-02-26T03:12:36;1.60;99.90
64209;DHT22;50527;52.414;13.226;2024-02-26T03:15:02;1.60;99.90
64209;DHT22;50527;52.414;13.226;2024-02-26T03:17:30;1.70;99.90
64209;DHT22;50527;52.414;13.226;2024-02-26T03:19:56;1.60;99.90
64209;DHT22;50527;52.414;13.226;2024-02-26T03:22:21;1.60;99.90
64209;DHT22;50527;52.414;13.226;2024-02-26T03:24:47;1.60;99.90
64209;DHT22;50527;52.414;13.226;2024-02-26T03:27:13;1.60;99.90
64209;DHT22;50527;52.414;13.226;2024-02-26T03:29:38;1.60;99.90
64209;DHT22;50527;52.414;13.226;2024-02-26T03:32:04;1.60;99.50
64209;DHT22;50527;52.414;13.226;2024-02-26T03:34:31;1.60;99.50
64209;DHT22;50527;52.414;13.226;2024-02-26T03:36:59;1.60;99.60
64209;DHT22;50527;52.414;13.226;2024-02-26T03:39:25;1.50;99.90
64209;DHT22;50527;52.414;13.226;2024-02-26T03:41:50;1.50;99.60
64209;DHT22;50527;52.414;13.226;2024-02-26T03:44:16;1.50;99.50
64209;DHT22;50527;52.414;13.226;2024-02-26T03:46:41;1.50;99.90
64209;DHT22;50527;52.414;13.226;2024-02-26T03:49:08;1.50;99.80
64209;DHT22;50527;52.414;13.226;2024-02-26T03:51:34;1.50;99.90
64209;DHT22;50527;52.414;13.226;2024-02-26T03:53:59;1.60;99.90
64209;DHT22;50527;52.414;13.226;2024-02-26T03:56:25;1.50;99.90
64209;DHT22;50527;52.414;13.226;2024-02-26T03:58:51;1.60;99.90
64209;DHT22;50527;52.414;13.226;2024-02-26T04:01:16;1.60;99.70
64209;DHT22;50527;52.414;13.226;2024-02-26T04:03:42;1.60;99.90
64209;DHT22;50527;52.414;13.226;2024-02-26T04:06:11;1.60;99.90
64209;DHT22;50527;52.414;13.226;2024-02-26T04:08:37;1.60;99.90
64209;DHT22;50527;52.414;13.226;2024-02-26T04:11:03;1.60;99.90
64209;DHT22;50527;52.414;13.226;2024-02-26T04:13:33;1.70;99.90
64209;DHT22;50527;52.414;13.226;2024-02-26T04:15:59;1.70;99.90
64209;DHT22;50527;52.414;13.226;2024-02-26T04:18:26;1.70;99.90
64209;DHT22;50527;52.414;13.226;2024-02-26T04:20:52;1.70;99.60
64209;DHT22;50527;52.414;13.226;2024-02-26T04:23:17;1.60;99.70
64209;DHT22;50527;52.414;13.226;2024-02-26T04:25:43;1.70;99.90
64209;DHT22;50527;52.414;13.226;2024-02-26T04:28:08;1.70;99.90
64209;DHT22;50527;52.414;13.226;2024-02-26T04:30:34;1.70;99.50
64209;DHT22;50527;52.414;13.226;2024-02-26T04:32:59;1.70;99.10
64209;DHT22;50527;52.414;13.226;2024-02-26T04:35:25;1.70;99.20
64209;DHT22;50527;52.414;13.226;2024-02-26T04:37:50;1.70;99.10
64209;DHT22;50527;52.414;13.226;2024-02-26T04:40:16;1.70;99.50
64209;DHT22;50527;52.414;13.226;2024-02-26T04:42:41;1.70;99.60
64209;DHT22;50527;52.414;13.226;2024-02-26T04:45:07;1.70;99.60
64209;DHT22;50527;52.414;13.226;2024-02-26T04:47:33;1.70;99.50
64209;DHT22;50527;52.414;13.226;2024-02-26T04:49:59;1.70;99.80
64209;DHT22;50527;52.414;13.226;2024-02-26T04:52:25;1.70;99.70
64209;DHT22;50527;52.414;13.226;2024-02-26T04:54:51;1.70;99.60
64209;DHT22;50527;52.414;13.226;2024-02-26T04:57:16;1.60;99.40
64209;DHT22;50527;52.414;13.226;2024-02-26T04:59:44;1.60;99.80
64209;DHT22;50527;52.414;13.226;2024-02-26T05:02:10;1.70;99.90
64209;DHT22;50527;52.414;13.226;2024-02-26T05:04:35;1.70;99.90
64209;DHT22;50527;52.414;13.226;2024-02-26T05:07:01;1.70;99.90
64209;DHT22;50527;52.414;13.226;2024-02-26T05:09:26;1.60;99.90
64209;DHT22;50527;52.414;13.226;2024-02-26T05:11:52;1.60;99.90
64209;DHT22;50527;52.414;13.226;2024-02-26T05:14:18;1.60;99.90
64209;DHT22;50527;52.414;13.226;2024-02-26T05:16:43;1.60;99.90
64209;DHT22;50527;52.414;13.226;2024-02-26T05:19:09;1.60;99.90
64209;DHT22;50527;52.414;13.226;2024-02-26T05:21:34;1.70;99.90
64209;DHT22;50527;52.414;13.226;2024-02-26T05:24:00;1.70;99.80
64209;DHT22;50527;52.414;13.226;2024-02-26T05:26:25;1.70;99.90
64209;DHT22;50527;52.414;13.226;2024-02-26T05:28:52;1.70;99.70
64209;DHT22;50527;52.414;13.226;2024-02-26T05:31:17;1.70;99.90
64209;DHT22;50527;52.414;13.226;2024-02-26T05:33:44;1.70;99.90
64209;DHT22;50527;52.414;13.226;2024-02-26T05:36:09;1.70;99.90
64209;DHT22;50527;52.414;13.226;2024-02-26T05:38:35;1.60;99.90
64209;DHT22;50527;52.414;13.226;2024-02-26T05:41:01;1.70;99.90
64209;DHT22;50527;52.414;13.226;2024-02-26T05:43:27;1.70;99.90
64209;DHT22;50527;52.414;13.226;2024-02-26T05:45:52;1.60;99.70
64209;DHT22;50527;52.414;13.226;2024-02-26T05:48:18;1.50;99.90
64209;DHT22;50527;52.414;13.226;2024-02-26T05:50:45;1.50;99.90
64209;DHT22;50527;52.414;13.226;2024-02-26T05:53:10;1.60;99.90
64209;DHT22;50527;52.414;13.226;2024-02-26T05:55:36;1.60;99.90
64209;DHT22;50527;52.414;13.226;2024-02-26T05:58:01;1.70;99.90
64209;DHT22;50527;52.414;13.226;2024-02-26T06:00:27;1.60;99.90
64209;DHT22;50527;52.414;13.226;2024-02-26T06:02:52;1.60;99.90
64209;DHT22;50527;52.414;13.226;2024-02-26T06:05:18;1.60;99.90
64209;DHT22;50527;52.414;13.226;2024-02-26T06:07:43;1.50;99.90
64209;DHT22;50527;52.414;13.226;2024-02-26T06:10:09;1.60;99.90
64209;DHT22;50527;52.414;13.226;2024-02-26T06:12:35;1.70;99.90
64209;DHT22;50527;52.414;13.226;2024-02-26T06:15:01;1.60;99.90
64209;DHT22;50527;52.414;13.226;2024-02-26T06:17:27;1.70;99.90
64209;DHT22;50527;52.414;13.226;2024-02-26T06:19:53;1.70;99.90
64209;DHT22;50527;52.414;13.226;2024-02-26T06:22:18;1.70;99.90
64209;DHT22;50527;52.414;13.226;2024-02-26T06:24:44;1.80;99.90
64209;DHT22;50527;52.414;13.226;2024-02-26T06:27:09;1.80;99.90
64209;DHT22;50527;52.414;13.226;2024-02-26T06:29:35;1.90;99.90
64209;DHT22;50527;52.414;13.226;2024-02-26T06:32:00;1.90;99.90
64209;DHT22;50527;52.414;13.226;2024-02-26T06:34:25;1.90;99.90
64209;DHT22;50527;52.414;13.226;2024-02-26T06:36:51;2.00;99.50
64209;DHT22;50527;52.414;13.226;2024-02-26T06:39:16;2.00;99.20
64209;DHT22;50527;52.414;13.226;2024-02-26T06:41:43;2.00;99.20
64209;DHT22;50527;52.414;13.226;2024-02-26T06:44:08;2.10;99.60
64209;DHT22;50527;52.414;13.226;2024-02-26T06:46:34;2.10;99.90
64209;DHT22;50527;52.414;13.226;2024-02-26T06:49:00;2.20;99.90
64209;DHT22;50527;52.414;13.226;2024-02-26T06:51:25;2.30;99.90
64209;DHT22;50527;52.414;13.226;2024-02-26T06:53:51;2.40;99.90
64209;DHT22;50527;52.414;13.226;2024-02-26T06:56:16;2.40;99.90
64209;DHT22;50527;52.414;13.226;2024-02-26T06:58:42;2.50;99.90
64209;DHT22;50527;52.414;13.226;2024-02-26T07:01:08;2.50;99.90
64209;DHT22;50527;52.414;13.226;2024-02-26T07:03:34;2.60;99.90
64209;DHT22;50527;52.414;13.226;2024-02-26T07:05:59;2.70;99.90
64209;DHT22;50527;52.414;13.226;2024-02-26T07:08:25;2.70;99.90
64209;DHT22;50527;52.414;13.226;2024-02-26T07:10:50;2.80;99.90
64209;DHT22;50527;52.414;13.226;2024-02-26T07:13:16;2.90;99.90
64209;DHT22;50527;52.414;13.226;2024-02-26T07:15:41;3.00;99.90
64209;DHT22;50527;52.414;13.226;2024-02-26T07:18:07;3.20;99.90
64209;DHT22;50527;52.414;13.226;2024-02-26T07:20:32;3.40;99.90
64209;DHT22;50527;52.414;13.226;2024-02-26T07:22:58;3.80;99.90
64209;DHT22;50527;52.414;13.226;2024-02-26T07:25:24;4.00;99.30
64209;DHT22;50527;52.414;13.226;2024-02-26T07:27:52;4.10;99.10
64209;DHT22;50527;52.414;13.226;2024-02-26T07:30:18;4.10;99.00
64209;DHT22;50527;52.414;13.226;2024-02-26T07:32:43;4.10;98.20
64209;DHT22;50527;52.414;13.226;2024-02-26T07:35:10;4.30;98.20
64209;DHT22;50527;52.414;13.226;2024-02-26T07:37:35;4.30;99.30
64209;DHT22;50527;52.414;13.226;2024-02-26T07:40:01;4.50;98.40
64209;DHT22;50527;52.414;13.226;2024-02-26T07:42:26;4.50;98.60
64209;DHT22;50527;52.414;13.226;2024-02-26T07:44:52;4.70;99.40
64209;DHT22;50527;52.414;13.226;2024-02-26T07:47:18;4.90;99.90
64209;DHT22;50527;52.414;13.226;2024-02-26T07:49:44;5.00;98.90
64209;DHT22;50527;52.414;13.226;2024-02-26T07:52:10;5.20;99.40
64209;DHT22;50527;52.414;13.226;2024-02-26T07:54:35;5.30;99.90
64209;DHT22;50527;52.414;13.226;2024-02-26T07:57:01;5.40;99.90
64209;DHT22;50527;52.414;13.226;2024-02-26T07:59:30;5.50;99.90
64209;DHT22;50527;52.414;13.226;2024-02-26T08:01:56;5.60;99.90
64209;DHT22;50527;52.414;13.226;2024-02-26T08:04:22;5.70;99.80
64209;DHT22;50527;52.414;13.226;2024-02-26T08:06:47;5.70;99.80
64209;DHT22;50527;52.414;13.226;2024-02-26T08:09:13;5.80;99.90
64209;DHT22;50527;52.414;13.226;2024-02-26T08:11:38;5.90;99.90
64209;DHT22;50527;52.414;13.226;2024-02-26T08:14:04;6.00;99.90
64209;DHT22;50527;52.414;13.226;2024-02-26T08:16:30;6.20;99.90
64209;DHT22;50527;52.414;13.226;2024-02-26T08:18:55;6.40;99.70
64209;DHT22;50527;52.414;13.226;2024-02-26T08:21:21;7.00;98.50
64209;DHT22;50527;52.414;13.226;2024-02-26T08:23:46;7.70;95.10
64209;DHT22;50527;52.414;13.226;2024-02-26T08:26:11;7.80;93.60
64209;DHT22;50527;52.414;13.226;2024-02-26T08:28:37;7.90;93.50
64209;DHT22;50527;52.414;13.226;2024-02-26T08:31:03;7.70;93.40
64209;DHT22;50527;52.414;13.226;2024-02-26T08:33:30;7.70;94.10
64209;DHT22;50527;52.414;13.226;2024-02-26T08:35:56;7.80;94.20
64209;DHT22;50527;52.414;13.226;2024-02-26T08:38:21;7.90;93.60
64209;DHT22;50527;52.414;13.226;2024-02-26T08:40:48;8.30;92.90
64209;DHT22;50527;52.414;13.226;2024-02-26T08:43:13;8.50;91.70
64209;DHT22;50527;52.414;13.226;2024-02-26T08:45:38;8.80;91.00
64209;DHT22;50527;52.414;13.226;2024-02-26T08:48:04;9.00;90.40
64209;DHT22;50527;52.414;13.226;2024-02-26T08:50:30;9.20;90.10
64209;DHT22;50527;52.414;13.226;2024-02-26T08:52:56;9.50;88.80
64209;DHT22;50527;52.414;13.226;2024-02-26T08:55:21;9.60;87.90
64209;DHT22;50527;52.414;13.226;2024-02-26T08:57:47;9.60;88.00
64209;DHT22;50527;52.414;13.226;2024-02-26T09:00:13;9.90;87.30
64209;DHT22;50527;52.414;13.226;2024-02-26T09:02:40;10.40;85.70
64209;DHT22;50527;52.414;13.226;2024-02-26T09:05:09;10.70;84.10
64209;DHT22;50527;52.414;13.226;2024-02-26T09:07:34;10.80;82.10
64209;DHT22;50527;52.414;13.226;2024-02-26T09:09:59;10.60;82.30
64209;DHT22;50527;52.414;13.226;2024-02-26T09:12:25;10.30;83.10
64209;DHT22;50527;52.414;13.226;2024-02-26T09:14:50;10.00;84.00
64209;DHT22;50527;52.414;13.226;2024-02-26T09:17:16;9.80;85.10
64209;DHT22;50527;52.414;13.226;2024-02-26T09:19:41;9.50;86.70
64209;DHT22;50527;52.414;13.226;2024-02-26T09:22:08;9.40;86.50
64209;DHT22;50527;52.414;13.226;2024-02-26T09:24:33;9.20;88.00
64209;DHT22;50527;52.414;13.226;2024-02-26T09:26:59;9.40;88.80
64209;DHT22;50527;52.414;13.226;2024-02-26T09:29:24;9.70;86.80
64209;DHT22;50527;52.414;13.226;2024-02-26T09:31:51;10.40;85.10
64209;DHT22;50527;52.414;13.226;2024-02-26T09:34:17;11.30;81.00
64209;DHT22;50527;52.414;13.226;2024-02-26T09:36:43;11.40;77.70
64209;DHT22;50527;52.414;13.226;2024-02-26T09:39:08;11.70;77.70
64209;DHT22;50527;52.414;13.226;2024-02-26T09:41:36;12.10;76.40
64209;DHT22;50527;52.414;13.226;2024-02-26T09:44:02;12.30;76.20
64209;DHT22;50527;52.414;13.226;2024-02-26T09:46:30;12.50;73.50
64209;DHT22;50527;52.414;13.226;2024-02-26T09:48:56;12.60;73.40
64209;DHT22;50527;52.414;13.226;2024-02-26T09:59:49;12.40;72.90
64209;DHT22;50527;52.414;13.226;2024-02-26T10:02:15;12.30;74.80
64209;DHT22;50527;52.414;13.226;2024-02-26T10:04:41;12.00;74.10
64209;DHT22;50527;52.414;13.226;2024-02-26T10:07:12;11.80;75.80
64209;DHT22;50527;52.414;13.226;2024-02-26T10:09:38;11.50;76.10
64209;DHT22;50527;52.414;13.226;2024-02-26T10:12:04;11.50;76.60
64209;DHT22;50527;52.414;13.226;2024-02-26T10:14:31;11.40;77.30
64209;DHT22;50527;52.414;13.226;2024-02-26T10:16:56;11.30;77.60
64209;DHT22;50527;52.414;13.226;2024-02-26T10:19:26;11.20;78.40
64209;DHT22;50527;52.414;13.226;2024-02-26T10:21:56;11.10;77.90
64209;DHT22;50527;52.414;13.226;2024-02-26T10:24:22;11.00;79.60
64209;DHT22;50527;52.414;13.226;2024-02-26T10:26:48;11.00;80.00
64209;DHT22;50527;52.414;13.226;2024-02-26T10:29:14;11.00;80.20
64209;DHT22;50527;52.414;13.226;2024-02-26T10:31:42;11.10;79.30
64209;DHT22;50527;52.414;13.226;2024-02-26T10:34:08;11.20;79.10
64209;DHT22;50527;52.414;13.226;2024-02-26T10:36:34;11.20;78.90
64209;DHT22;50527;52.414;13.226;2024-02-26T10:39:05;11.10;78.20
64209;DHT22;50527;52.414;13.226;2024-02-26T10:41:32;11.10;78.70
64209;DHT22;50527;52.414;13.226;2024-02-26T10:43:58;11.00;77.70
64209;DHT22;50527;52.414;13.226;2024-02-26T10:46:23;11.00;78.10
64209;DHT22;50527;52.414;13.226;2024-02-26T10:48:50;10.90;78.30
64209;DHT22;50527;52.414;13.226;2024-02-26T10:51:20;11.00;78.80
64209;DHT22;50527;52.414;13.226;2024-02-26T10:53:48;11.20;78.90
64209;DHT22;50527;52.414;13.226;2024-02-26T10:56:16;11.30;78.00
64209;DHT22;50527;52.414;13.226;2024-02-26T10:58:45;11.40;77.30
64209;DHT22;50527;52.414;13.226;2024-02-26T11:01:11;11.40;76.50
64209;DHT22;50527;52.414;13.226;2024-02-26T11:03:38;11.50;75.80
64209;DHT22;50527;52.414;13.226;2024-02-26T11:06:05;11.50;75.80
64209;DHT22;50527;52.414;13.226;2024-02-26T11:08:31;11.50;75.00
64209;DHT22;50527;52.414;13.226;2024-02-26T11:10:57;11.60;74.70
64209;DHT22;50527;52.414;13.226;2024-02-26T11:13:27;11.70;74.60
64209;DHT22;50527;52.414;13.226;2024-02-26T11:15:55;11.80;73.90
64209;DHT22;50527;52.414;13.226;2024-02-26T11:18:23;11.80;73.00
64209;DHT22;50527;52.414;13.226;2024-02-26T11:20:50;11.80;73.90
64209;DHT22;50527;52.414;13.226;2024-02-26T11:23:16;11.80;71.80
64209;DHT22;50527;52.414;13.226;2024-02-26T11:25:42;11.80;73.40
64209;DHT22;50527;52.414;13.226;2024-02-26T11:28:14;11.90;72.10
64209;DHT22;50527;52.414;13.226;2024-02-26T11:30:41;12.10;73.00
64209;DHT22;50527;52.414;13.226;2024-02-26T11:33:09;12.00;70.60
64209;DHT22;50527;52.414;13.226;2024-02-26T11:35:38;11.90;71.50
64209;DHT22;50527;52.414;13.226;2024-02-26T11:38:04;11.90;71.30
64209;DHT22;50527;52.414;13.226;2024-02-26T11:40:32;11.90;69.70
64209;DHT22;50527;52.414;13.226;2024-02-26T11:42:58;12.00;69.50
64209;DHT22;50527;52.414;13.226;2024-02-26T11:48:14;12.10;70.50
64209;DHT22;50527;52.414;13.226;2024-02-26T11:50:41;12.10;71.30
64209;DHT22;50527;52.414;13.226;2024-02-26T11:55:45;11.90;69.40
64209;DHT22;50527;52.414;13.226;2024-02-26T11:58:10;11.90;69.10
64209;DHT22;50527;52.414;13.226;2024-02-26T12:00:35;11.90;69.50
64209;DHT22;50527;52.414;13.226;2024-02-26T12:03:02;12.00;68.50
64209;DHT22;50527;52.414;13.226;2024-02-26T12:05:34;12.00;69.40
64209;DHT22;50527;52.414;13.226;2024-02-26T12:08:06;12.10;70.00
64209;DHT22;50527;52.414;13.226;2024-02-26T12:10:34;12.20;69.90
64209;DHT22;50527;52.414;13.226;2024-02-26T12:13:11;12.20;67.40
64209;DHT22;50527;52.414;13.226;2024-02-26T12:15:39;12.20;68.60
64209;DHT22;50527;52.414;13.226;2024-02-26T12:18:06;12.40;69.00
64209;DHT22;50527;52.414;13.226;2024-02-26T12:20:33;12.40;67.50
64209;DHT22;50527;52.414;13.226;2024-02-26T12:23:02;12.50;67.60
64209;DHT22;50527;52.414;13.226;2024-02-26T12:25:29;12.50;66.40
64209;DHT22;50527;52.414;13.226;2024-02-26T12:27:55;12.50;66.10
64209;DHT22;50527;52.414;13.226;2024-02-26T12:30:21;12.50;65.60
64209;DHT22;50527;52.414;13.226;2024-02-26T12:32:49;12.50;64.90
64209;DHT22;50527;52.414;13.226;2024-02-26T12:35:15;12.50;65.00
64209;DHT22;50527;52.414;13.226;2024-02-26T12:37:42;12.40;64.40
64209;DHT22;50527;52.414;13.226;2024-02-26T12:40:10;12.40;65.00
64209;DHT22;50527;52.414;13.226;2024-02-26T12:42:36;12.40;64.70
64209;DHT22;50527;52.414;13.226;2024-02-26T12:45:07;12.40;63.10
64209;DHT22;50527;52.414;13.226;2024-02-26T12:47:39;12.40;64.00
64209;DHT22;50527;52.414;13.226;2024-02-26T12:50:06;12.40;64.70
64209;DHT22;50527;52.414;13.226;2024-02-26T12:52:33;12.40;64.20
64209;DHT22;50527;52.414;13.226;2024-02-26T12:54:59;12.50;64.60
64209;DHT22;50527;52.414;13.226;2024-02-26T12:57:24;12.40;63.20
64209;DHT22;50527;52.414;13.226;2024-02-26T12:59:51;12.40;62.60
64209;DHT22;50527;52.414;13.226;2024-02-26T13:02:16;12.30;62.40
64209;DHT22;50527;52.414;13.226;2024-02-26T13:04:42;12.20;62.30
64209;DHT22;50527;52.414;13.226;2024-02-26T13:07:08;12.10;62.50
64209;DHT22;50527;52.414;13.226;2024-02-26T13:09:34;12.20;62.60
64209;DHT22;50527;52.414;13.226;2024-02-26T13:12:06;12.20;62.40
64209;DHT22;50527;52.414;13.226;2024-02-26T13:14:32;12.20;62.60
64209;DHT22;50527;52.414;13.226;2024-02-26T13:16:59;12.20;62.80
64209;DHT22;50527;52.414;13.226;2024-02-26T13:19:25;12.30;64.00
64209;DHT22;50527;52.414;13.226;2024-02-26T13:21:51;12.30;65.00
64209;DHT22;50527;52.414;13.226;2024-02-26T13:24:17;12.30;64.30
64209;DHT22;50527;52.414;13.226;2024-02-26T13:26:45;12.30;65.30
64209;DHT22;50527;52.414;13.226;2024-02-26T13:29:17;12.30;66.40
64209;DHT22;50527;52.414;13.226;2024-02-26T13:31:43;12.20;67.40
64209;DHT22;50527;52.414;13.226;2024-02-26T13:34:08;12.10;67.20
64209;DHT22;50527;52.414;13.226;2024-02-26T13:36:34;12.10;67.10
64209;DHT22;50527;52.414;13.226;2024-02-26T13:38:59;12.20;67.20
64209;DHT22;50527;52.414;13.226;2024-02-26T13:41:26;12.20;66.80
64209;DHT22;50527;52.414;13.226;2024-02-26T13:43:52;12.30;66.00
64209;DHT22;50527;52.414;13.226;2024-02-26T13:46:18;12.20;65.40
64209;DHT22;50527;52.414;13.226;2024-02-26T13:48:43;12.20;65.10
64209;DHT22;50527;52.414;13.226;2024-02-26T13:51:09;12.20;65.00
64209;DHT22;50527;52.414;13.226;2024-02-26T13:53:34;12.20;65.50
64209;DHT22;50527;52.414;13.226;2024-02-26T13:56:00;12.10;64.80
64209;DHT22;50527;52.414;13.226;2024-02-26T13:58:27;12.20;65.00
64209;DHT22;50527;52.414;13.226;2024-02-26T14:00:53;12.10;63.30
64209;DHT22;50527;52.414;13.226;2024-02-26T14:03:20;12.00;63.20
64209;DHT22;50527;52.414;13.226;2024-02-26T14:05:45;12.10;62.60
64209;DHT22;50527;52.414;13.226;2024-02-26T14:08:11;12.20;63.20
64209;DHT22;50527;52.414;13.226;2024-02-26T14:10:36;12.20;63.30
64209;DHT22;50527;52.414;13.226;2024-02-26T14:13:03;12.10;62.90
64209;DHT22;50527;52.414;13.226;2024-02-26T14:15:28;12.10;62.80
64209;DHT22;50527;52.414;13.226;2024-02-26T14:17:54;12.10;63.10
64209;DHT22;50527;52.414;13.226;2024-02-26T14:20:22;12.10;63.30
64209;DHT22;50527;52.414;13.226;2024-02-26T14:22:49;12.10;63.10
64209;DHT22;50527;52.414;13.226;2024-02-26T14:25:16;12.10;62.40
64209;DHT22;50527;52.414;13.226;2024-02-26T14:27:42;12.00;62.50
64209;DHT22;50527;52.414;13.226;2024-02-26T14:30:08;12.00;62.70
64209;DHT22;50527;52.414;13.226;2024-02-26T14:32:34;11.90;62.70
64209;DHT22;50527;52.414;13.226;2024-02-26T14:35:01;11.90;62.80
64209;DHT22;50527;52.414;13.226;2024-02-26T14:37:28;11.90;63.40
64209;DHT22;50527;52.414;13.226;2024-02-26T14:39:53;11.90;63.80
64209;DHT22;50527;52.414;13.226;2024-02-26T14:42:19;11.80;63.30
64209;DHT22;50527;52.414;13.226;2024-02-26T14:44:44;11.90;64.10
64209;DHT22;50527;52.414;13.226;2024-02-26T14:47:13;11.80;64.60
64209;DHT22;50527;52.414;13.226;2024-02-26T14:49:38;11.80;64.80
64209;DHT22;50527;52.414;13.226;2024-02-26T14:52:04;11.80;64.90
64209;DHT22;50527;52.414;13.226;2024-02-26T14:54:29;11.70;65.10
64209;DHT22;50527;52.414;13.226;2024-02-26T14:56:58;11.70;66.10
64209;DHT22;50527;52.414;13.226;2024-02-26T14:59:24;11.70;65.90
64209;DHT22;50527;52.414;13.226;2024-02-26T15:01:49;11.60;66.60
64209;DHT22;50527;52.414;13.226;2024-02-26T15:04:15;11.60;66.20
64209;DHT22;50527;52.414;13.226;2024-02-26T15:06:41;11.60;66.10
64209;DHT22;50527;52.414;13.226;2024-02-26T15:09:06;11.60;67.20
64209;DHT22;50527;52.414;13.226;2024-02-26T15:11:32;11.50;67.50
64209;DHT22;50527;52.414;13.226;2024-02-26T15:13:57;11.60;67.50
64209;DHT22;50527;52.414;13.226;2024-02-26T15:16:23;11.50;68.60
64209;DHT22;50527;52.414;13.226;2024-02-26T15:18:48;11.50;68.40
64209;DHT22;50527;52.414;13.226;2024-02-26T15:21:14;11.40;68.80
64209;DHT22;50527;52.414;13.226;2024-02-26T15:23:43;11.40;69.40
64209;DHT22;50527;52.414;13.226;2024-02-26T15:26:11;11.40;69.90
64209;DHT22;50527;52.414;13.226;2024-02-26T15:28:37;11.40;69.30
64209;DHT22;50527;52.414;13.226;2024-02-26T15:31:03;11.30;70.20